createdAt,value
2023-04-18T00:00:29.376Z,57.70
2023-04-18T00:02:59.182Z,57.90
2023-04-18T00:05:28.581Z,57.40
2023-04-18T00:07:56.805Z,57.10
2023-04-18T00:10:25.234Z,56.80
2023-04-18T00:12:53.370Z,57.30
2023-04-18T00:15:21.552Z,57.50
2023-04-18T00:17:51.205Z,57.40
2023-04-18T00:20:19.493Z,57.00
2023-04-18T00:22:47.720Z,57.20
2023-04-18T00:25:16.218Z,57.30
2023-04-18T00:27:44.382Z,57.10
2023-04-18T00:30:13.340Z,56.80
2023-04-18T00:32:41.591Z,56.80
2023-04-18T00:35:11.421Z,56.70
2023-04-18T00:37:39.638Z,55.80
2023-04-18T00:40:08.871Z,55.90
2023-04-18T00:42:37.186Z,55.90
2023-04-18T00:45:06.231Z,55.70
2023-04-18T00:47:34.521Z,56.40
2023-04-18T00:50:03.468Z,56.30
2023-04-18T00:52:35.853Z,55.70
2023-04-18T00:55:05.255Z,55.90
2023-04-18T00:57:33.534Z,55.90
2023-04-18T01:00:03.794Z,55.80
2023-04-18T01:02:32.365Z,55.50
2023-04-18T01:05:00.762Z,55.80
2023-04-18T01:07:30.602Z,55.00
2023-04-18T01:10:00.814Z,54.20
2023-04-18T01:12:29.089Z,54.20
2023-04-18T01:14:57.286Z,54.20
2023-04-18T01:17:28.278Z,55.30
2023-04-18T01:19:56.873Z,55.60
2023-04-18T01:22:25.387Z,55.80
2023-04-18T01:24:54.971Z,55.40
2023-04-18T01:27:23.156Z,55.40
2023-04-18T01:29:51.423Z,56.20
2023-04-18T01:32:20.468Z,56.20
2023-04-18T01:34:48.836Z,56.00
2023-04-18T01:37:17.616Z,55.70
2023-04-18T01:39:45.821Z,56.90
2023-04-18T01:42:15.391Z,55.90
2023-04-18T01:44:45.748Z,55.90
2023-04-18T01:47:14.271Z,55.70
2023-04-18T01:49:46.683Z,55.60
2023-04-18T01:52:15.193Z,54.80
2023-04-18T01:54:43.822Z,54.60
2023-04-18T01:57:12.024Z,53.70
2023-04-18T01:59:41.599Z,53.80
2023-04-18T02:02:11.251Z,54.70
2023-04-18T02:04:39.662Z,54.80
2023-04-18T02:07:07.857Z,55.00
2023-04-18T02:09:37.165Z,55.00
2023-04-18T02:12:05.492Z,55.60
2023-04-18T02:14:37.137Z,55.50
2023-04-18T02:17:06.696Z,55.50
2023-04-18T02:19:34.909Z,55.30
2023-04-18T02:22:03.085Z,55.50
2023-04-18T02:24:32.807Z,55.30
2023-04-18T02:27:01.938Z,55.40
2023-04-18T02:29:30.505Z,55.90
2023-04-18T02:31:59.860Z,55.70
2023-04-18T02:34:29.681Z,56.20
2023-04-18T02:36:57.877Z,56.70
2023-04-18T02:39:26.058Z,56.80
2023-04-18T02:41:54.278Z,56.50
2023-04-18T02:44:26.076Z,56.70
2023-04-18T02:46:54.270Z,56.50
2023-04-18T02:49:22.730Z,57.20
2023-04-18T02:51:55.798Z,57.20
2023-04-18T02:54:24.845Z,57.20
2023-04-18T02:57:13.619Z,57.30
2023-04-18T02:59:55.201Z,57.20
2023-04-18T03:02:41.922Z,57.50
2023-04-18T03:05:26.167Z,58.00
2023-04-18T03:07:58.860Z,58.50
2023-04-18T03:10:27.331Z,57.70
2023-04-18T03:12:55.788Z,57.60
2023-04-18T03:15:24.157Z,57.30
2023-04-18T03:17:53.829Z,56.80
2023-04-18T03:20:24.186Z,56.50
2023-04-18T03:22:53.577Z,56.30
2023-04-18T03:25:27.045Z,57.00
2023-04-18T03:27:55.266Z,56.80
2023-04-18T03:30:24.514Z,56.50
2023-04-18T03:32:58.671Z,56.60
2023-04-18T03:35:27.122Z,57.10
2023-04-18T03:37:56.662Z,56.90
2023-04-18T03:40:28.956Z,57.70
2023-04-18T03:43:02.437Z,57.70
2023-04-18T03:45:31.037Z,57.70
2023-04-18T03:47:59.285Z,57.20
2023-04-18T03:50:28.529Z,56.80
2023-04-18T03:52:58.297Z,56.60
2023-04-18T03:55:28.162Z,56.40
2023-04-18T03:57:58.375Z,57.00
2023-04-18T04:00:30.261Z,57.40
2023-04-18T04:03:09.767Z,57.90
2023-04-18T04:05:38.262Z,57.50
2023-04-18T04:08:09.597Z,57.30
2023-04-18T04:10:39.468Z,57.00
2023-04-18T04:13:08.007Z,56.40
2023-04-18T04:15:40.191Z,56.60
2023-04-18T04:18:11.115Z,56.80
2023-04-18T04:20:43.279Z,56.60
2023-04-18T04:23:15.297Z,56.40
2023-04-18T04:25:48.355Z,55.90
2023-04-18T04:28:31.498Z,55.70
2023-04-18T04:31:08.186Z,55.50
2023-04-18T04:33:38.854Z,55.20
2023-04-18T04:36:16.141Z,55.30
2023-04-18T04:38:47.266Z,54.80
2023-04-18T04:41:17.186Z,55.20
2023-04-18T04:43:46.649Z,54.50
2023-04-18T04:46:19.927Z,54.40
2023-04-18T04:48:50.679Z,54.60
2023-04-18T04:51:20.212Z,54.60
2023-04-18T04:53:48.857Z,54.40
2023-04-18T04:56:18.532Z,54.00
2023-04-18T04:58:47.327Z,53.70
2023-04-18T05:01:20.844Z,53.20
2023-04-18T05:03:51.510Z,52.90
2023-04-18T05:06:20.821Z,53.30
2023-04-18T05:08:49.143Z,53.20
2023-04-18T05:11:19.282Z,53.10
2023-04-18T05:13:47.617Z,52.80
2023-04-18T05:16:15.837Z,52.50
2023-04-18T05:18:46.337Z,52.50
2023-04-18T05:21:16.647Z,52.20
2023-04-18T05:23:44.834Z,51.80
2023-04-18T05:26:13.026Z,51.60
2023-04-18T05:28:42.621Z,51.10
2023-04-18T05:31:10.863Z,51.50
2023-04-18T05:33:39.068Z,51.40
2023-04-18T05:36:08.015Z,51.40
2023-04-18T05:38:36.202Z,52.20
2023-04-18T05:41:04.412Z,50.90
2023-04-18T05:43:32.630Z,51.00
2023-04-18T05:46:02.173Z,51.20
2023-04-18T05:48:30.407Z,51.90
2023-04-18T05:50:58.666Z,52.00
2023-04-18T05:53:26.856Z,52.10
2023-04-18T05:55:55.194Z,52.30
2023-04-18T05:58:23.335Z,52.40
2023-04-18T06:00:51.604Z,51.90
2023-04-18T06:03:21.304Z,51.50
2023-04-18T06:05:49.746Z,51.50
2023-04-18T06:08:18.022Z,51.80
2023-04-18T06:10:46.268Z,51.40
2023-04-18T06:13:16.429Z,51.10
2023-04-18T06:15:44.747Z,51.30
2023-04-18T06:18:12.964Z,51.50
2023-04-18T06:20:44.180Z,51.10
2023-04-18T06:23:12.401Z,51.30
2023-04-18T06:25:42.704Z,51.20
2023-04-18T06:28:11.064Z,50.00
2023-04-18T06:30:39.281Z,49.70
2023-04-18T06:33:10.353Z,48.70
2023-04-18T06:35:39.174Z,48.40
2023-04-18T06:38:08.854Z,49.00
2023-04-18T06:40:37.168Z,48.90
2023-04-18T06:43:08.027Z,48.80
2023-04-18T06:45:36.755Z,49.10
2023-04-18T06:48:05.522Z,48.70
2023-04-18T06:50:33.759Z,48.70
2023-04-18T06:53:05.373Z,49.00
2023-04-18T06:55:35.386Z,49.10
2023-04-18T06:58:04.976Z,49.50
2023-04-18T07:00:33.146Z,49.40
2023-04-18T07:03:02.130Z,49.60
2023-04-18T07:05:30.464Z,49.50
2023-04-18T07:07:58.618Z,49.40
2023-04-18T07:10:27.077Z,48.10
2023-04-18T07:12:56.627Z,48.10
2023-04-18T07:15:24.902Z,48.50
2023-04-18T07:17:53.151Z,48.70
2023-04-18T07:20:21.510Z,48.10
2023-04-18T07:22:50.007Z,48.30
2023-04-18T07:25:19.142Z,48.00
2023-04-18T07:27:47.873Z,47.90
2023-04-18T07:30:17.629Z,47.70
2023-04-18T07:32:47.226Z,47.00
2023-04-18T07:35:15.487Z,47.60
2023-04-18T07:37:44.174Z,47.20
2023-04-18T07:40:15.766Z,47.20
2023-04-18T07:42:44.456Z,47.00
2023-04-18T07:45:12.851Z,47.10
2023-04-18T07:47:42.429Z,46.70
2023-04-18T07:50:11.727Z,46.30
2023-04-18T07:52:39.902Z,46.70
2023-04-18T07:55:09.067Z,46.70
2023-04-18T07:57:37.285Z,47.50
2023-04-18T08:00:09.494Z,46.60
2023-04-18T08:02:45.037Z,45.60
2023-04-18T08:05:13.426Z,46.00
2023-04-18T08:07:41.941Z,45.50
2023-04-18T08:10:12.935Z,45.90
2023-04-18T08:12:41.617Z,46.20
2023-04-18T08:15:10.723Z,46.90
2023-04-18T08:17:39.785Z,45.50
2023-04-18T08:20:10.361Z,43.80
2023-04-18T08:22:50.061Z,44.30
2023-04-18T08:25:27.288Z,44.00
2023-04-18T08:27:55.729Z,44.40
2023-04-18T08:30:23.881Z,43.70
2023-04-18T08:32:52.220Z,43.50
2023-04-18T08:35:21.990Z,43.10
2023-04-18T08:37:50.174Z,43.60
2023-04-18T08:40:18.608Z,44.70
2023-04-18T08:42:46.776Z,45.50
2023-04-18T08:45:15.247Z,45.20
2023-04-18T08:47:43.776Z,45.20
2023-04-18T08:50:12.636Z,44.20
2023-04-18T08:52:47.668Z,43.30
2023-04-18T08:55:16.329Z,43.90
2023-04-18T08:57:48.179Z,42.50
2023-04-18T09:00:19.711Z,43.00
2023-04-18T09:02:48.063Z,43.80
2023-04-18T09:05:19.990Z,41.90
2023-04-18T09:07:51.411Z,40.90
2023-04-18T09:10:28.682Z,41.00
2023-04-18T09:12:57.845Z,40.70
2023-04-18T09:15:29.140Z,41.10
2023-04-18T09:17:59.614Z,41.80
2023-04-18T09:20:35.710Z,41.50
2023-04-18T09:23:10.351Z,41.10
2023-04-18T09:25:46.408Z,42.20
2023-04-18T09:28:24.353Z,41.70
2023-04-18T09:30:54.253Z,41.50
2023-04-18T09:33:29.021Z,41.50
2023-04-18T09:36:00.209Z,40.30
2023-04-18T09:38:42.193Z,41.20
2023-04-18T09:41:11.115Z,40.40
2023-04-18T09:43:39.661Z,39.80
2023-04-18T09:46:09.094Z,40.00
2023-04-18T09:48:37.579Z,40.10
2023-04-18T09:51:08.456Z,40.40
2023-04-18T09:53:41.554Z,39.80
2023-04-18T09:56:13.848Z,39.70
2023-04-18T09:58:44.689Z,39.50
2023-04-18T10:01:13.358Z,38.80
2023-04-18T10:03:46.212Z,38.50
2023-04-18T10:06:17.740Z,39.50
2023-04-18T10:08:48.976Z,38.70
2023-04-18T10:11:19.229Z,38.30
2023-04-18T10:13:50.429Z,38.60
2023-04-18T10:16:20.357Z,38.60
2023-04-18T10:18:50.867Z,39.10
2023-04-18T10:21:19.208Z,38.80
2023-04-18T10:23:50.349Z,38.70
2023-04-18T10:26:18.548Z,38.30
2023-04-18T10:28:57.297Z,41.10
2023-04-18T10:31:26.847Z,38.90
2023-04-18T10:34:17.690Z,37.80
2023-04-18T10:37:05.406Z,39.00
2023-04-18T10:39:58.245Z,38.70
2023-04-18T10:43:00.608Z,36.80
2023-04-18T10:45:31.239Z,36.90
2023-04-18T10:48:26.130Z,37.40
2023-04-18T10:51:14.480Z,37.50
2023-04-18T10:53:49.550Z,37.50
2023-04-18T10:56:19.144Z,37.60
2023-04-18T10:58:57.232Z,35.00
2023-04-18T11:01:31.979Z,35.70
2023-04-18T11:04:01.690Z,37.50
2023-04-18T11:06:31.270Z,35.60
2023-04-18T11:09:17.184Z,36.00
2023-04-18T11:12:03.250Z,36.50
2023-04-18T11:14:41.065Z,35.80
2023-04-18T11:17:19.959Z,35.30
2023-04-18T11:19:48.773Z,35.50
2023-04-18T11:22:17.922Z,35.30
2023-04-18T11:24:46.233Z,34.40
2023-04-18T11:27:18.615Z,33.70
2023-04-18T11:29:53.253Z,33.00
2023-04-18T11:32:24.040Z,32.60
2023-04-18T11:34:54.864Z,32.30
2023-04-18T11:37:23.749Z,31.20
2023-04-18T11:39:53.850Z,31.70
2023-04-18T11:42:27.488Z,31.00
2023-04-18T11:44:58.267Z,33.00
2023-04-18T11:47:28.722Z,32.90
2023-04-18T11:49:58.236Z,34.20
2023-04-18T11:52:28.279Z,34.70
2023-04-18T11:55:10.756Z,32.70
2023-04-18T11:57:40.858Z,33.50
2023-04-18T12:00:12.215Z,33.60
2023-04-18T12:02:43.157Z,34.60
2023-04-18T12:05:14.543Z,32.80
2023-04-18T12:07:45.823Z,33.60
2023-04-18T12:10:26.246Z,33.40
2023-04-18T12:12:58.537Z,32.40
2023-04-18T12:15:28.443Z,32.50
2023-04-18T12:18:01.076Z,32.90
2023-04-18T12:20:36.375Z,33.60
2023-04-18T12:23:05.554Z,34.30
2023-04-18T12:25:37.514Z,34.40
2023-04-18T12:28:15.844Z,33.80
2023-04-18T12:30:44.106Z,32.80
2023-04-18T12:33:12.535Z,33.20
2023-04-18T12:35:41.139Z,32.70
2023-04-18T12:38:09.393Z,31.80
2023-04-18T12:40:40.701Z,30.90
2023-04-18T12:43:11.228Z,31.00
2023-04-18T12:45:39.427Z,31.60
2023-04-18T12:48:08.792Z,31.90
2023-04-18T12:50:36.982Z,32.00
2023-04-18T12:53:08.041Z,31.70
2023-04-18T12:55:36.311Z,31.80
2023-04-18T12:58:04.742Z,32.20
2023-04-18T13:00:34.562Z,32.00
2023-04-18T13:03:03.043Z,31.00
2023-04-18T13:05:33.941Z,32.00
2023-04-18T13:08:15.216Z,31.70
2023-04-18T13:10:45.722Z,32.10
2023-04-18T13:13:14.041Z,33.10
2023-04-18T13:15:43.622Z,33.10
2023-04-18T13:18:11.828Z,33.60
2023-04-18T13:20:40.039Z,33.30
2023-04-18T13:23:08.215Z,32.90
2023-04-18T13:25:40.061Z,32.80
2023-04-18T13:28:08.242Z,32.60
2023-04-18T13:30:36.616Z,32.40
2023-04-18T13:33:06.565Z,32.80
2023-04-18T13:35:35.963Z,33.10
2023-04-18T13:38:04.187Z,33.70
2023-04-18T13:40:33.428Z,32.70
2023-04-18T13:43:01.618Z,31.90
2023-04-18T13:45:29.779Z,31.50
2023-04-18T13:47:57.997Z,31.30
2023-04-18T13:50:30.125Z,32.80
2023-04-18T13:52:58.315Z,31.70
2023-04-18T13:55:27.304Z,31.60
2023-04-18T13:57:55.469Z,31.20
2023-04-18T14:00:23.675Z,31.60
2023-04-18T14:02:51.974Z,32.20
2023-04-18T14:05:20.471Z,32.00
2023-04-18T14:07:50.140Z,32.90
2023-04-18T14:10:18.295Z,32.40
2023-04-18T14:12:48.224Z,32.70
2023-04-18T14:15:19.440Z,34.00
2023-04-18T14:17:47.681Z,33.80
2023-04-18T14:20:19.205Z,32.80
2023-04-18T14:22:47.444Z,32.70
2023-04-18T14:25:17.093Z,32.90
2023-04-18T14:27:48.831Z,32.90
2023-04-18T14:30:17.221Z,33.50
2023-04-18T14:32:45.742Z,33.50
2023-04-18T14:35:14.281Z,32.20
2023-04-18T14:37:42.473Z,32.80
2023-04-18T14:40:12.301Z,32.00
2023-04-18T14:42:41.881Z,33.00
2023-04-18T14:45:11.715Z,33.30
2023-04-18T14:47:40.096Z,32.30
2023-04-18T14:50:11.742Z,32.80
2023-04-18T14:52:40.200Z,32.00
2023-04-18T14:55:10.695Z,31.80
2023-04-18T14:57:39.429Z,32.10
2023-04-18T15:00:11.961Z,33.10
2023-04-18T15:02:40.563Z,32.80
2023-04-18T15:05:09.934Z,32.60
2023-04-18T15:07:38.236Z,32.50
2023-04-18T15:10:07.487Z,32.30
2023-04-18T15:12:35.965Z,32.60
2023-04-18T15:15:04.366Z,31.40
2023-04-18T15:17:36.462Z,32.20
2023-04-18T15:20:07.059Z,32.10
2023-04-18T15:22:35.654Z,32.40
2023-04-18T15:25:04.556Z,32.90
2023-04-18T15:27:33.115Z,32.60
2023-04-18T15:30:02.279Z,32.90
2023-04-18T15:32:31.010Z,33.40
2023-04-18T15:35:00.561Z,34.00
2023-04-18T15:37:28.856Z,34.30
2023-04-18T15:39:57.041Z,35.40
2023-04-18T15:42:25.316Z,34.60
2023-04-18T15:44:53.510Z,34.30
2023-04-18T15:47:24.404Z,34.60
2023-04-18T15:49:55.341Z,35.30
2023-04-18T15:52:24.878Z,35.90
2023-04-18T15:54:53.295Z,35.60
2023-04-18T15:57:22.081Z,35.40
2023-04-18T15:59:50.233Z,35.80
2023-04-18T16:02:18.486Z,35.90
2023-04-18T16:04:47.387Z,35.10
2023-04-18T16:07:16.017Z,35.70
2023-04-18T16:09:45.865Z,35.80
2023-04-18T16:12:14.269Z,35.30
2023-04-18T16:14:42.444Z,35.70
2023-04-18T16:17:10.674Z,36.00
2023-04-18T16:19:40.858Z,35.70
2023-04-18T16:22:10.418Z,35.60
2023-04-18T16:24:39.913Z,34.90
2023-04-18T16:27:11.103Z,35.10
2023-04-18T16:29:39.318Z,35.40
2023-04-18T16:32:08.345Z,35.60
2023-04-18T16:34:36.554Z,35.00
2023-04-18T16:37:05.124Z,35.30
2023-04-18T16:39:36.291Z,36.00
2023-04-18T16:42:04.670Z,34.50
2023-04-18T16:44:36.578Z,34.30
2023-04-18T16:47:06.080Z,34.90
2023-04-18T16:49:34.281Z,35.30
2023-04-18T16:52:02.689Z,35.30
2023-04-18T16:54:31.030Z,34.70
2023-04-18T16:56:59.248Z,35.20
2023-04-18T16:59:30.215Z,35.00
2023-04-18T17:02:00.359Z,35.00
2023-04-18T17:04:29.072Z,35.30
2023-04-18T17:06:57.370Z,35.40
2023-04-18T17:09:25.596Z,34.80
2023-04-18T17:11:53.774Z,35.10
2023-04-18T17:14:21.952Z,34.70
2023-04-18T17:16:52.839Z,35.30
2023-04-18T17:19:24.208Z,35.20
2023-04-18T17:21:52.443Z,35.00
2023-04-18T17:24:22.426Z,35.60
2023-04-18T17:26:51.044Z,36.40
2023-04-18T17:29:19.409Z,37.00
2023-04-18T17:31:48.177Z,37.50
2023-04-18T17:34:16.454Z,38.00
2023-04-18T17:36:46.474Z,38.90
2023-04-18T17:39:16.773Z,39.00
2023-04-18T17:41:46.674Z,39.30
2023-04-18T17:44:14.849Z,38.90
2023-04-18T17:46:43.035Z,40.10
2023-04-18T17:49:11.810Z,40.30
2023-04-18T17:51:40.286Z,40.10
2023-04-18T17:54:11.069Z,40.10
2023-04-18T17:56:39.329Z,40.30
2023-04-18T17:59:09.741Z,40.40
2023-04-18T18:01:38.667Z,40.50
2023-04-18T18:04:09.714Z,41.20
2023-04-18T18:06:38.211Z,41.10
2023-04-18T18:09:07.220Z,41.50
2023-04-18T18:11:36.864Z,41.40
2023-04-18T18:14:05.628Z,41.20
2023-04-18T18:16:34.135Z,41.10
2023-04-18T18:19:02.374Z,41.10
2023-04-18T18:21:30.548Z,41.10
2023-04-18T18:23:58.746Z,41.10
2023-04-18T18:26:27.596Z,41.20
2023-04-18T18:28:57.132Z,41.10
2023-04-18T18:31:27.689Z,41.20
2023-04-18T18:33:55.873Z,41.00
2023-04-18T18:36:24.091Z,41.20
2023-04-18T18:38:52.252Z,41.50
2023-04-18T18:41:22.522Z,41.50
2023-04-18T18:43:51.214Z,41.90
2023-04-18T18:46:20.837Z,42.20
2023-04-18T18:48:49.781Z,42.00
2023-04-18T18:51:19.979Z,42.10
2023-04-18T18:53:49.722Z,41.60
2023-04-18T18:56:18.195Z,42.30
2023-04-18T18:58:46.387Z,42.50
2023-04-18T19:01:14.624Z,42.70
2023-04-18T19:03:44.320Z,42.00
2023-04-18T19:06:12.621Z,42.30
2023-04-18T19:08:40.799Z,42.60
2023-04-18T19:11:09.627Z,42.80
2023-04-18T19:13:37.903Z,42.50
2023-04-18T19:16:06.650Z,42.50
2023-04-18T19:18:34.941Z,42.40
2023-04-18T19:21:07.485Z,42.10
2023-04-18T19:23:35.945Z,42.40
2023-04-18T19:26:04.197Z,42.20
2023-04-18T19:28:32.376Z,42.50
2023-04-18T19:31:02.134Z,42.20
2023-04-18T19:33:30.397Z,42.00
2023-04-18T19:35:59.045Z,43.20
2023-04-18T19:38:28.652Z,43.70
2023-04-18T19:40:56.941Z,43.60
2023-04-18T19:43:26.198Z,43.40
2023-04-18T19:45:55.371Z,44.50
2023-04-18T19:48:23.664Z,44.80
2023-04-18T19:50:51.862Z,44.60
2023-04-18T19:53:20.504Z,44.70
2023-04-18T19:55:51.345Z,44.40
2023-04-18T19:58:35.503Z,44.40
2023-04-18T20:01:05.876Z,44.60
2023-04-18T20:03:34.927Z,44.20
2023-04-18T20:06:05.402Z,44.10
2023-04-18T20:08:33.917Z,44.30
2023-04-18T20:11:04.982Z,44.00
2023-04-18T20:13:33.383Z,43.90
2023-04-18T20:16:01.760Z,43.70
2023-04-18T20:18:32.347Z,43.90
2023-04-18T20:21:00.543Z,43.60
2023-04-18T20:23:28.750Z,44.00
2023-04-18T20:25:59.231Z,44.30
2023-04-18T20:28:29.035Z,44.50
2023-04-18T20:30:57.331Z,44.60
2023-04-18T20:33:27.682Z,44.30
2023-04-18T20:35:56.018Z,44.30
2023-04-18T20:38:26.159Z,44.20
2023-04-18T20:40:54.694Z,44.30
2023-04-18T20:43:23.086Z,43.90
2023-04-18T20:45:53.803Z,43.90
2023-04-18T20:48:22.258Z,43.80
2023-04-18T20:50:51.999Z,44.00
2023-04-18T20:53:21.592Z,43.40
2023-04-18T20:55:50.018Z,43.40
2023-04-18T20:58:18.254Z,43.20
2023-04-18T21:00:46.505Z,42.90
2023-04-18T21:03:16.853Z,42.90
2023-04-18T21:05:45.860Z,42.80
2023-04-18T21:08:14.051Z,42.90
2023-04-18T21:10:42.238Z,43.10
2023-04-18T21:13:12.471Z,43.00
2023-04-18T21:15:42.178Z,43.50
2023-04-18T21:18:10.563Z,44.30
2023-04-18T21:20:40.161Z,44.50
2023-04-18T21:23:08.417Z,44.60
2023-04-18T21:25:36.632Z,44.80
2023-04-18T21:28:05.332Z,45.40
2023-04-18T21:30:33.531Z,45.00
2023-04-18T21:33:01.764Z,45.20
2023-04-18T21:35:30.081Z,45.70
2023-04-18T21:37:59.969Z,45.50
2023-04-18T21:40:30.604Z,45.30
2023-04-18T21:42:58.848Z,45.20
2023-04-18T21:45:29.897Z,44.90
2023-04-18T21:47:58.174Z,44.90
2023-04-18T21:50:28.744Z,45.00
2023-04-18T21:52:57.023Z,44.90
2023-04-18T21:55:26.705Z,45.30
2023-04-18T21:57:57.267Z,45.50
2023-04-18T22:00:25.588Z,45.90
2023-04-18T22:02:53.867Z,45.40
2023-04-18T22:05:22.189Z,45.50
2023-04-18T22:07:58.063Z,45.30
2023-04-18T22:10:28.169Z,45.50
2023-04-18T22:12:56.401Z,45.20
2023-04-18T22:15:26.934Z,45.60
2023-04-18T22:17:55.449Z,45.50
2023-04-18T22:20:25.486Z,45.80
2023-04-18T22:22:54.566Z,46.10
2023-04-18T22:25:22.743Z,45.90
2023-04-18T22:27:52.275Z,46.80
2023-04-18T22:30:20.561Z,46.20
2023-04-18T22:32:48.843Z,46.10
2023-04-18T22:35:17.156Z,47.30
2023-04-18T22:37:45.351Z,47.80
2023-04-18T22:40:14.581Z,47.80
2023-04-18T22:42:43.262Z,47.80
2023-04-18T22:45:13.560Z,47.90
2023-04-18T22:47:41.941Z,47.40
2023-04-18T22:50:10.809Z,47.70
2023-04-18T22:52:39.036Z,47.40
2023-04-18T22:55:08.001Z,47.00
2023-04-18T22:57:39.129Z,47.70
2023-04-18T23:00:10.014Z,47.00
2023-04-18T23:02:39.784Z,47.00
2023-04-18T23:05:10.678Z,46.90
2023-04-18T23:07:38.902Z,47.10
2023-04-18T23:10:08.480Z,47.00
2023-04-18T23:12:36.656Z,47.00
2023-04-18T23:15:05.817Z,47.10
2023-04-18T23:17:34.783Z,47.00
2023-04-18T23:20:06.746Z,46.40
2023-04-18T23:22:34.921Z,46.40
2023-04-18T23:25:03.223Z,46.80
2023-04-18T23:27:31.415Z,46.50
2023-04-18T23:29:59.684Z,46.70
2023-04-18T23:32:27.876Z,46.80
2023-04-18T23:34:56.071Z,47.20
2023-04-18T23:37:25.698Z,47.30
2023-04-18T23:39:53.875Z,47.20
2023-04-18T23:42:22.050Z,47.30
2023-04-18T23:44:50.454Z,48.10
2023-04-18T23:47:18.700Z,48.10
2023-04-18T23:49:46.919Z,47.90
2023-04-18T23:52:15.224Z,48.10
2023-04-18T23:54:45.042Z,48.10
2023-04-18T23:57:14.240Z,48.00
2023-04-18T23:59:42.428Z,47.80
